Tiempo atmosférico en la estación meteorológica de Girona, Girona (79 m.)



Fecha
DESCASC
Temp. máxima en grados centígrados (hora)
DESCASC
Temp. mínima en grados centígrados (hora)
DESCASC
Temp. media en grados centígrados
DESCASC
Racha de viento máxima en m/sg (hora)
DESCASC
Velocidad máxima media en intervalos de 10 minutos(hora)
DESCASC
Precipitaciones diarias en mm
DESCASC
Precipitaciones de 00:00 a 06:00 en mm
DESCASC
Precipitaciones de 06:00 a 12:00 en mm
DESCASC
Precipitaciones de 12:00 a 18:00 en mm
DESCASC
Precipitaciones de 18:00 a 24:00 en mm
DESCASC
25-04-2019 21.6 (16:30) 12.9 (00:10) 17.3 11.94 (17:40) 5 (19:20) 0 0 0 0 0
24-04-2019 20 (14:00) 11.8 (07:20) 15.9 14.17 (12:40) 6.39 (12:20) 0 0 0 0 0
23-04-2019 21.7 (16:40) 12.5 (04:30) 17.1 12.78 (18:20) 5.56 (18:30) 8.8 4.8 4 0 0
22-04-2019 16.9 (13:40) 13 (00:00) 14.9 8.33 (09:10) 3.61 (09:10) 1.6 0 0.6 0.2 0.8
21-04-2019 17.1 (14:40) 11.9 (00:00) 14.5 9.17 (18:20) 4.17 (14:10) 0 0 0 0 0
20-04-2019 19.1 (13:10) 11.6 (00:00) 15.4 8.61 (12:50) 3.61 (15:00) 4.4 0 0 0 4.4
19-04-2019 19.6 (15:40) 11.9 (00:00) 15.8 9.17 (15:20) 4.17 (15:10) 0 0 0 0 0
18-04-2019 17.7 (15:10) 11.1 (00:00) 14.4 6.39 (13:20) 3.06 (13:30) 0 0 0 0 0
17-04-2019 19.9 (14:40) 7.4 (00:00) 13.6 8.61 (15:10) 3.89 (14:30) 0 0 0 0 0
16-04-2019 18.2 (14:20) 9.2 (00:00) 13.7 5.28 (11:30) 2.22 (11:30) 0.8 0.8 0 0 0
15-04-2019 18.7 (14:20) 6.3 (00:00) 12.5 7.22 (16:30) 3.61 (17:00) 0 0 0 0 0
14-04-2019 20.3 (16:00) 6.1 (00:00) 13.2 6.11 (16:50) 3.06 (16:30) 0 0 0 0 0
13-04-2019 22.7 (15:00) 5.1 (00:00) 13.9 6.94 (15:40) 3.33 (15:40) 0 0 0 0 0
12-04-2019 21.5 (14:30) 9.1 (00:00) 15.3 7.78 (18:50) 3.61 (15:50) 0 0 0 0 0
11-04-2019 17.7 (12:40) 8.2 (00:00) 13 4.72 (12:20) 1.67 (12:20) 0 0 0 0 0
10-04-2019 18.3 (17:30) 5.7 (00:00) 12 6.39 (16:50) 3.33 (16:40) 0.4 0 0 0.4 0
09-04-2019 17.2 (14:30) 9.3 (00:00) 13.3 7.22 (15:10) 3.89 (15:10) 0.6 0 0 0.6 0
08-04-2019 20.9 (14:40) 4.8 (00:00) 12.8 4.72 (16:20) 1.94 (13:30) 2.8 0 0 0 2.8
07-04-2019 -- (--) -- (--) -- -- (--) -- (--) -- -- 0 0 0
06-04-2019 18.2 (17:50) 8.4 (00:00) 13.3 9.17 (13:00) 3.33 (12:40) 6.2 6 0.2 0 0
05-04-2019 16.8 (12:00) 3.2 (00:00) 10 9.17 (12:50) 4.17 (13:40) 2.2 0 0 1 1.2
04-04-2019 15.7 (15:10) 4.1 (00:00) 9.9 7.5 (15:10) 3.33 (16:40) 0 0 0 0 0
03-04-2019 17 (13:50) 6.2 (00:00) 11.6 9.44 (14:20) 3.61 (14:40) 16.2 0 0.2 6.4 9.6
02-04-2019 19.9 (13:40) 6.7 (00:00) 13.3 6.67 (18:10) 3.06 (18:10) 10.8 0 0 0 10.8
01-04-2019 22.1 (15:30) 7.3 (00:00) 14.7 7.22 (17:20) 3.61 (17:20) 0 0 0 0 0
31-03-2019 18.6 (15:30) 4.8 (00:00) 11.7 4.72 (17:10) 2.22 (17:10) 0 0 0 0 0
30-03-2019 19.1 (15:00) 2.8 (00:00) 11 6.94 (16:10) 3.33 (17:10) 0 0 0 0 0
29-03-2019 19.6 (13:30) 4.2 (00:00) 11.9 7.78 (14:30) 3.61 (15:00) 0 0 0 0 0
28-03-2019 19.9 (16:10) 4.5 (00:00) 12.2 7.22 (14:50) 4.17 (14:40) 0 0 0 0 0
27-03-2019 21.4 (14:10) 4.1 (00:00) 12.7 8.61 (01:50) 3.61 (15:10) 0 0 0 0 0

Gráficas

Temp. máximas Temp. mínimas Temp. medias Precipitaciones Rachas de viento máximas Velocidades máximas media en intervalos de 10 minutos

Datos horarios

Fecha y hora oficial Temperatura (ºC) Velocidad del viento (km/h) Dirección del viento Racha (km/h) Dirección de racha Precipitación (mm) Presión (hPa) Tendencia (hPa) Humedad (%)
2019-04-25 23:00:00 13.9 5 Sudeste 13 Sudeste 0 -- -- 83
2019-04-25 22:00:00 15.2 0 Calma 11 Oeste 0 -- -- 59
2019-04-25 21:00:00 16 4 Oeste 20 Oeste 0 -- -- 53
2019-04-25 20:00:00 16.9 8 Sur 33 Sudoeste 0 -- -- 68
2019-04-25 19:00:00 17.8 12 Sur 28 Sur 0 -- -- 62
2019-04-25 18:00:00 19 13 Sur 43 Sur 0 -- -- 58
2019-04-25 17:00:00 21.2 14 Sur 30 Sudeste 0 -- -- 49
2019-04-25 16:00:00 19.9 6 Oeste 17 Sudoeste 0 -- -- 46
2019-04-25 15:00:00 18.5 7 Oeste 27 Oeste 0 -- -- 52
2019-04-25 14:00:00 19.7 9 Oeste 28 Sudoeste 0 -- -- 47
2019-04-25 13:00:00 18.3 9 Oeste 33 Sudoeste 0 -- -- 50
2019-04-25 12:00:00 16.5 11 Oeste 35 Sur 0 -- -- 58
2019-04-25 11:00:00 17.4 14 Sur 37 Sudeste 0 -- -- 69
2019-04-25 10:00:00 16.7 14 Sudeste 37 Sudeste 0 -- -- 73
2019-04-25 09:00:00 15.2 14 Sudeste 31 Sudeste 0 -- -- 80
2019-04-25 08:00:00 14.6 12 Sur 28 Sur 0 -- -- 81
2019-04-25 07:00:00 14.6 13 Sur 33 Sur 0 -- -- 79
2019-04-25 06:00:00 14.5 14 Sur 34 Sur 0 -- -- 80
2019-04-25 05:00:00 14.2 10 Sur 32 Sur 0 -- -- 83
2019-04-25 04:00:00 14.3 9 Sur 22 Sudeste 0 -- -- 77
2019-04-25 03:00:00 14.2 8 Sur 26 Sur 0 -- -- 79
2019-04-25 02:00:00 13.5 9 Sur 24 Sur 0 -- -- 81
2019-04-25 01:00:00 13.1 8 Sudeste 26 Sudeste 0 -- -- 78
2019-04-25 00:00:00 13.1 9 Sudeste 25 Sudeste 0 -- -- 73
2019-04-24 23:00:00 13.1 7 Sudeste 19 Sudeste 0 -- -- 68
2019-04-24 22:00:00 13.4 8 Sudeste 25 Sur 0 -- -- 67
2019-04-24 21:00:00 14 11 Sur 37 Sudeste 0 -- -- 64
2019-04-24 20:00:00 15.5 13 Sur 37 Sudeste 0 -- -- 57
2019-04-24 19:00:00 17.2 15 Sur 39 Sur 0 -- -- 50
2019-04-24 18:00:00 18.9 15 Sur 48 Sudeste 0 -- -- 46
2019-04-24 17:00:00 19.1 17 Sur 48 Sur 0 -- -- 42
2019-04-24 16:00:00 19.6 20 Sur 41 Sudeste 0 -- -- 43
2019-04-24 15:00:00 19.3 17 Sur 47 Sudeste 0 -- -- 45
2019-04-24 14:00:00 20 16 Sur 45 Sudoeste 0 -- -- 43
2019-04-24 13:00:00 18.9 18 Sur 51 Sudoeste 0 -- -- 40
2019-04-24 12:00:00 18.5 14 Sudoeste 33 Sudoeste 0 -- -- 40
2019-04-24 11:00:00 17.2 12 Sudoeste 26 Sudoeste 0 -- -- 42
2019-04-24 10:00:00 16.4 9 Sur 28 Sur 0 -- -- 66
2019-04-24 09:00:00 14.1 9 Sur 23 Sur 0 -- -- 80
2019-04-24 08:00:00 12.2 5 Sur 11 Sudeste 0 -- -- 93
2019-04-24 07:00:00 12.3 3 Sur 11 Este 0 -- -- 92
2019-04-24 06:00:00 13 6 Sur 17 Este 0 -- -- 88
2019-04-24 05:00:00 13.4 6 Sur 19 Sur 0 -- -- 85
2019-04-24 04:00:00 13.3 7 Sudeste 19 Sur 0 -- -- 89
2019-04-24 03:00:00 13.7 8 Sudeste 22 Sudeste 0 -- -- 89
2019-04-24 02:00:00 13.7 11 Sudeste 28 Sudeste 0 -- -- 90
2019-04-24 01:00:00 14 8 Sur 25 Sur 0 -- -- 92
2019-04-24 00:00:00 14 9 Sur 21 Sudeste 0 -- -- 94
2019-04-23 23:00:00 14.1 7 Sudeste 22 Sudeste 0 -- -- 88
2019-04-23 22:00:00 14.5 9 Sudeste 23 Sur 0 -- -- 83
2019-04-23 21:00:00 15 10 Sudeste 21 Sur 0 -- -- 83
2019-04-23 20:00:00 16.1 10 Sudeste 28 Sur 0 -- -- 76
2019-04-23 19:00:00 17.9 11 Sur 46 Sur 0 -- -- 68
2019-04-23 18:00:00 20.5 15 Sudeste 35 Sudeste 0 -- -- 54
2019-04-23 17:00:00 21.4 13 Sur 33 Sur 0 -- -- 54
2019-04-23 16:00:00 20.4 11 Sudeste 27 Sur 0 -- -- 60
2019-04-23 15:00:00 20.6 9 Sur 19 Sur 0 -- -- 61
2019-04-23 14:00:00 19.4 6 Sur 14 Sudeste 0 -- -- 67
2019-04-23 13:00:00 17.7 2 Sudeste 9 Nordeste 0 -- -- 77
2019-04-23 12:00:00 15.6 5 Nordeste 19 Norte 0 -- -- 88
2019-04-23 11:00:00 15.1 6 Norte 18 Norte 0 -- -- 91
2019-04-23 10:00:00 14 6 Norte 15 Norte 0.6 -- -- 100
2019-04-23 09:00:00 13 5 Noroeste 19 Norte 0.8 -- -- 100
2019-04-23 08:00:00 12.7 6 Norte 18 Noroeste 2.4 -- -- 100
2019-04-23 07:00:00 12.7 6 Noroeste 17 Norte 0.2 -- -- 100
2019-04-23 06:00:00 12.6 6 Norte 19 Norte 1.2 -- -- 100
2019-04-23 05:00:00 12.6 3 Noroeste 21 Norte 1 -- -- 100
2019-04-23 04:00:00 12.6 7 Norte 18 Norte 0.6 -- -- 100
2019-04-23 03:00:00 12.8 6 Norte 16 Noroeste 0.6 -- -- 100
2019-04-23 02:00:00 12.8 8 Norte 22 Noroeste 0.4 -- -- 100
2019-04-23 01:00:00 12.9 9 Norte 28 Norte 1 -- -- 100
2019-04-23 00:00:00 13 9 Norte 23 Nordeste 0.8 -- -- 96
2019-04-22 23:00:00 13 11 Norte 25 Noroeste 0 -- -- 93
2019-04-22 22:00:00 13.6 6 Norte 24 Norte 0 -- -- 86
2019-04-22 21:00:00 15.1 7 Norte 25 Noroeste 0 -- -- 70
2019-04-22 20:00:00 15.6 9 Norte 25 Nordeste 0 -- -- 64
2019-04-22 19:00:00 15.8 8 Norte 21 Noroeste 0 -- -- 62
2019-04-22 18:00:00 16 9 Norte 27 Noroeste 0 -- -- 60
2019-04-22 17:00:00 16.1 9 Norte 23 Nordeste 0 -- -- 61
2019-04-22 16:00:00 16.8 10 Norte 25 Nordeste 0 -- -- 61
2019-04-22 15:00:00 16.5 8 Norte 23 Norte 0 -- -- 58
2019-04-22 14:00:00 16.8 7 Norte 21 Norte 0 -- -- 60
2019-04-22 13:00:00 16 10 Norte 26 Norte 0.2 -- -- 63
2019-04-22 12:00:00 15.7 9 Norte 28 Norte 0 -- -- 65
2019-04-22 11:00:00 16.4 9 Norte 27 Norte 0 -- -- 63
2019-04-22 10:00:00 15.8 8 Norte 30 Noroeste 0.6 -- -- 66
2019-04-22 09:00:00 15.2 9 Norte 20 Nordeste 0 -- -- 62
2019-04-22 08:00:00 14.4 5 Norte 19 Noroeste 0 -- -- 60
2019-04-22 07:00:00 14.2 4 Norte 23 Norte 0 -- -- 62
2019-04-22 06:00:00 14.3 7 Norte 16 Norte 0 -- -- 64
2019-04-22 05:00:00 14.7 10 Norte 28 Norte 0 -- -- 59
2019-04-22 04:00:00 14.2 8 Norte 18 Norte 0 -- -- 60
2019-04-22 03:00:00 14.3 6 Norte 15 Norte 0 -- -- 60
2019-04-22 02:00:00 14.5 7 Norte 17 Norte 0 -- -- 59
2019-04-22 01:00:00 14.4 8 Norte 18 Norte 0 -- -- 60
2019-04-22 00:00:00 14.1 4 Norte 17 Norte 0 -- -- 65
2019-04-21 23:00:00 14.2 5 Noroeste 18 Noroeste 0 -- -- 67
2019-04-21 22:00:00 14.5 9 Norte 19 Norte 0 -- -- 67
2019-04-21 21:00:00 15.2 8 Norte 27 Norte 0 -- -- 65
2019-04-21 20:00:00 15.9 8 Norte 23 Norte 0 -- -- 64
2019-04-21 19:00:00 16.6 9 Norte 33 Norte 0 -- -- 62
2019-04-21 18:00:00 16.9 13 Norte 30 Norte 0 -- -- 58
2019-04-21 17:00:00 16.9 10 Norte 32 Nordeste 0 -- -- 60
2019-04-21 16:00:00 16.7 10 Norte 29 Norte 0 -- -- 60
2019-04-21 15:00:00 17 14 Norte 29 Norte 0 -- -- 54
2019-04-21 14:00:00 16.8 11 Norte 26 Norte 0 -- -- 52
2019-04-21 13:00:00 16 12 Norte 27 Noroeste 0 -- -- 54
2019-04-21 12:00:00 15.6 10 Norte 27 Norte 0 -- -- 59
2019-04-21 11:00:00 15.5 11 Norte 28 Nordeste 0 -- -- 62
2019-04-21 10:00:00 14.9 9 Norte 24 Nordeste 0 -- -- 68
2019-04-21 09:00:00 13.8 6 Norte 18 Noroeste 0 -- -- 68
2019-04-21 08:00:00 13.6 8 Norte 20 Norte 0 -- -- 68
2019-04-21 07:00:00 13.1 9 Norte 16 Noroeste 0 -- -- 70
2019-04-21 06:00:00 13.4 5 Norte 21 Norte 0 -- -- 66
2019-04-21 05:00:00 13.5 8 Norte 18 Norte 0 -- -- 66
2019-04-21 04:00:00 13.4 10 Norte 21 Nordeste 0 -- -- 66
2019-04-21 03:00:00 12.8 5 Nordeste 14 Norte 0 -- -- 71
2019-04-21 02:00:00 12.6 4 Noroeste 18 Norte 0 -- -- 73
2019-04-21 01:00:00 12.5 5 Norte 22 Noroeste 0 -- -- 74
2019-04-21 00:00:00 11.9 7 Norte 18 Norte 0 -- -- 82
2019-04-20 23:00:00 11.7 5 Noroeste 24 Norte 0.4 -- -- 83
2019-04-20 22:00:00 12.1 9 Norte 22 Noroeste 1.8 -- -- 85
2019-04-20 21:00:00 12.8 5 Noroeste 15 Norte 1.8 -- -- 84
2019-04-20 20:00:00 14.9 3 Nordeste 15 Norte 0.4 -- -- 68
2019-04-20 19:00:00 15.8 9 Norte 20 Norte 0 -- -- 60
2019-04-20 18:00:00 16 6 Norte 23 Nordeste 0 -- -- 63
2019-04-20 17:00:00 16.2 10 Norte 22 Nordeste 0 -- -- 61
2019-04-20 16:00:00 17.2 9 Nordeste 24 Nordeste 0 -- -- 55
2019-04-20 15:00:00 17.8 13 Norte 27 Norte 0 -- -- 51
2019-04-20 14:00:00 18.3 10 Norte 25 Nordeste 0 -- -- 46
2019-04-20 13:00:00 18.8 8 Norte 31 Norte 0 -- -- 43
2019-04-20 12:00:00 18.3 11 Norte 27 Norte 0 -- -- 46
2019-04-20 11:00:00 17.3 10 Norte 25 Norte 0 -- -- 52
2019-04-20 10:00:00 16.2 12 Norte 22 Norte 0 -- -- 55
2019-04-20 09:00:00 14.8 7 Norte 16 Norte 0 -- -- 54
2019-04-20 08:00:00 13.6 7 Norte 15 Nordeste 0 -- -- 56
2019-04-20 07:00:00 13.1 4 Nordeste 9 Norte 0 -- -- 55
2019-04-20 06:00:00 13.1 3 Nordeste 10 Nordeste 0 -- -- 54
2019-04-20 05:00:00 13.6 5 Nordeste 12 Nordeste 0 -- -- 51
2019-04-20 04:00:00 13.9 4 Nordeste 12 Norte 0 -- -- 50
2019-04-20 03:00:00 13.3 4 Norte 8 Norte 0 -- -- 54
2019-04-20 02:00:00 13.3 2 Norte 8 Norte 0 -- -- 56
2019-04-20 01:00:00 13.7 3 Nordeste 10 Norte 0 -- -- 55
2019-04-20 00:00:00 14.5 4 Norte 11 Norte 0 -- -- 55
2019-04-19 23:00:00 14.7 3 Norte 9 Nordeste 0 -- -- 56
2019-04-19 22:00:00 15.5 4 Nordeste 16 Nordeste 0 -- -- 55
2019-04-19 21:00:00 16 6 Norte 18 Norte 0 -- -- 53
2019-04-19 20:00:00 16.6 8 Norte 21 Norte 0 -- -- 55
2019-04-19 19:00:00 17.3 9 Norte 28 Nordeste 0 -- -- 55
2019-04-19 18:00:00 17.9 14 Norte 29 Norte 0 -- -- 55
2019-04-19 17:00:00 18.9 12 Nordeste 30 Nordeste 0 -- -- 52
2019-04-19 16:00:00 19.5 12 Norte 33 Norte 0 -- -- 44
2019-04-19 15:00:00 19.2 13 Nordeste 27 Norte 0 -- -- 47
2019-04-19 14:00:00 18.8 14 Norte 31 Norte 0 -- -- 55
2019-04-19 13:00:00 18.7 11 Norte 30 Norte 0 -- -- 54
2019-04-19 12:00:00 17.7 10 Norte 29 Noroeste 0 -- -- 55
2019-04-19 11:00:00 17 9 Norte 27 Norte 0 -- -- 62
2019-04-19 10:00:00 15 8 Norte 28 Nordeste 0 -- -- 69
2019-04-19 09:00:00 14.3 10 Norte 21 Norte 0 -- -- 69
2019-04-19 08:00:00 13.5 6 Norte 21 Norte 0 -- -- 72
2019-04-19 07:00:00 13.3 4 Norte 14 Norte 0 -- -- 69
2019-04-19 06:00:00 13.3 2 Noroeste 13 Norte 0 -- -- 65
2019-04-19 05:00:00 13.8 5 Norte 14 Norte 0 -- -- 62
2019-04-19 04:00:00 12.7 2 Norte 9 Norte 0 -- -- 70
2019-04-19 03:00:00 12.5 3 Noroeste 17 Nordeste 0 -- -- 72
2019-04-19 02:00:00 12.2 0 Calma 8 Oeste 0 -- -- 73
2019-04-19 01:00:00 12.9 3 Noroeste 9 Norte 0 -- -- 70
2019-04-19 00:00:00 12.9 3 Noroeste 9 Norte 0 -- -- 69
2019-04-18 23:00:00 13.9 6 Norte 15 Norte 0 -- -- 69
2019-04-18 22:00:00 14 3 Nordeste 20 Norte 0 -- -- 70
2019-04-18 21:00:00 14.3 9 Norte 21 Norte 0 -- -- 72
2019-04-18 20:00:00 14.9 5 Norte 19 Norte 0 -- -- 73
2019-04-18 19:00:00 15.6 7 Norte 21 Este 0 -- -- 69
2019-04-18 18:00:00 15.9 11 Norte 21 Nordeste 0 -- -- 71
2019-04-18 17:00:00 16.2 9 Norte 19 Norte 0 -- -- 70
2019-04-18 16:00:00 17.6 7 Norte 17 Norte 0 -- -- 62
2019-04-18 15:00:00 17.6 7 Norte 23 Norte 0 -- -- 57
2019-04-18 14:00:00 17.4 9 Nordeste 23 Nordeste 0 -- -- 59
2019-04-18 13:00:00 17.4 11 Norte 22 Norte 0 -- -- 63
2019-04-18 12:00:00 16 8 Norte 18 Noroeste 0 -- -- 68
2019-04-18 11:00:00 15 6 Norte 15 Norte 0 -- -- 74
2019-04-18 10:00:00 13.7 6 Norte 13 Nordeste 0 -- -- 88
2019-04-18 09:00:00 12.7 5 Norte 10 Norte 0 -- -- 94
2019-04-18 08:00:00 11.5 5 Noroeste 11 Norte 0 -- -- 97
2019-04-18 07:00:00 11.1 2 Oeste 4 Oeste 0 -- -- 96
2019-04-18 06:00:00 11.6 0 Calma 4 Norte 0 -- -- 95
2019-04-18 05:00:00 12 0 Calma 4 Norte 0 -- -- 92
2019-04-18 04:00:00 12.8 3 Norte 8 Nordeste 0 -- -- 90
2019-04-18 03:00:00 13 0 Calma 4 Noroeste 0 -- -- 92
2019-04-18 02:00:00 12.9 0 Calma 6 Sudeste 0 -- -- 90
2019-04-18 01:00:00 13.4 3 Sur 8 Sudeste 0 -- -- 87
2019-04-18 00:00:00 13.7 4 Sur 9 Sur 0 -- -- 86
2019-04-17 23:00:00 14 3 Sur 9 Sudeste 0 -- -- 84
2019-04-17 22:00:00 14 4 Sur 12 Sudeste 0 -- -- 81
2019-04-17 21:00:00 14.5 4 Sudeste 15 Sudeste 0 -- -- 78
2019-04-17 20:00:00 15.5 6 Sur 21 Sur 0 -- -- 72
2019-04-17 19:00:00 17.4 8 Sur 26 Sur 0 -- -- 63
2019-04-17 18:00:00 18.6 10 Sur 26 Sudoeste 0 -- -- 58
2019-04-17 17:00:00 17.8 12 Sur 30 Sur 0 -- -- 61
2019-04-17 16:00:00 18.5 13 Sudeste 31 Sudeste 0 -- -- 58
2019-04-17 15:00:00 19.1 14 Sur 30 Sudeste 0 -- -- 56
2019-04-17 14:00:00 19.8 10 Sudeste 24 Este 0 -- -- 55
2019-04-17 13:00:00 19 13 Sur 28 Sudeste 0 -- -- 57
2019-04-17 12:00:00 18.1 9 Sur 20 Sudoeste 0 -- -- 60
2019-04-17 11:00:00 15.2 9 Sudoeste 17 Sur 0 -- -- 73
2019-04-17 10:00:00 12.7 5 Sur 10 Sudoeste 0 -- -- 88
2019-04-17 09:00:00 9.3 3 Sur 9 Sudoeste 0 -- -- 99
2019-04-17 08:00:00 7.7 3 Sur 6 Sudeste 0 -- -- 100
2019-04-17 07:00:00 7.9 0 Calma 6 Sur 0 -- -- 98
2019-04-17 06:00:00 8.4 2 Sudeste 9 Este 0 -- -- 95
2019-04-17 05:00:00 9.1 0 Calma 6 Sudeste 0 -- -- 95
2019-04-17 04:00:00 9.5 3 Sudeste 5 Sudeste 0 -- -- 94
2019-04-17 03:00:00 10 0 Calma 4 Sur 0 -- -- 91
2019-04-17 02:00:00 11 0 Calma 4 Este 0 -- -- 88
2019-04-17 01:00:00 12.1 0 Calma 6 Sudeste 0 -- -- 83
2019-04-17 00:00:00 12.8 0 Calma 8 Noroeste 0 -- -- 85
2019-04-16 23:00:00 13.3 0 Calma 5 Este 0 -- -- 79
2019-04-16 22:00:00 13.7 0 Calma 7 Este 0 -- -- 78
2019-04-16 21:00:00 14 3 Este 10 Este 0 -- -- 76
2019-04-16 20:00:00 14.8 4 Este 10 Este 0 -- -- 74
2019-04-16 19:00:00 16 4 Este 12 Este 0 -- -- 70
2019-04-16 18:00:00 16.5 6 Nordeste 13 Nordeste 0 -- -- 66
2019-04-16 17:00:00 16.6 5 Norte 15 Nordeste 0 -- -- 66
2019-04-16 16:00:00 16.6 7 Norte 16 Nordeste 0 -- -- 66
2019-04-16 15:00:00 17.6 3 Noroeste 15 Sur 0 -- -- 60
2019-04-16 14:00:00 17.3 3 Este 10 Noroeste 0 -- -- 62
2019-04-16 13:00:00 16 5 Norte 13 Noroeste 0 -- -- 66
2019-04-16 12:00:00 15.2 5 Norte 19 Norte 0 -- -- 70
2019-04-16 11:00:00 15.2 3 Noroeste 7 Oeste 0 -- -- 67
2019-04-16 10:00:00 12.4 0 Calma 4 Norte 0 -- -- 77
2019-04-16 09:00:00 10.4 0 Calma 6 Noroeste 0 -- -- 89
2019-04-16 08:00:00 9.7 3 Oeste 5 Oeste 0 -- -- 92
2019-04-16 07:00:00 9.5 2 Oeste 6 Oeste 0 -- -- 92
2019-04-16 06:00:00 9.3 0 Calma 4 Oeste 0 -- -- 92
2019-04-16 05:00:00 9.3 2 Oeste 5 Oeste 0 -- -- 94
2019-04-16 04:00:00 9.7 2 Oeste 9 Norte 0 -- -- 93
2019-04-16 03:00:00 10.3 3 Noroeste 9 Este 0.4 -- -- 87
2019-04-16 02:00:00 11.1 0 Calma 5 Sudeste 0.4 -- -- 83
2019-04-16 01:00:00 11.4 0 Calma 6 Este 0 -- -- 70
2019-04-16 00:00:00 11.6 2 Sudeste 10 Sudoeste 0 -- -- 68
2019-04-15 23:00:00 12.1 6 Sur 10 Sur 0 -- -- 66
2019-04-15 22:00:00 12.3 6 Sudeste 15 Sudeste 0 -- -- 57
2019-04-15 21:00:00 13 6 Sur 15 Sudeste 0 -- -- 51
2019-04-15 20:00:00 13.8 7 Sudeste 19 Sudeste 0 -- -- 45
2019-04-15 19:00:00 14.7 10 Sudeste 24 Sur 0 -- -- 45
2019-04-15 18:00:00 15.4 9 Sur 22 Sur 0 -- -- 44
2019-04-15 17:00:00 16 13 Sur 26 Sudeste 0 -- -- 46
2019-04-15 16:00:00 18.2 10 Sudeste 24 Sudeste 0 -- -- 47
2019-04-15 15:00:00 18.6 10 Sudeste 21 Sudeste 0 -- -- 47
2019-04-15 14:00:00 18.4 11 Sudeste 24 Este 0 -- -- 47
2019-04-15 13:00:00 17.9 7 Sur 18 Sudoeste 0 -- -- 46
2019-04-15 12:00:00 15.9 4 Sur 11 Sur 0 -- -- 50
2019-04-15 11:00:00 13.6 3 Noroeste 8 Sudoeste 0 -- -- 59
2019-04-15 10:00:00 11.1 0 Calma 5 Noroeste 0 -- -- 65
2019-04-15 09:00:00 8.4 2 Noroeste 6 Norte 0 -- -- 77
2019-04-15 08:00:00 6.6 0 Calma 6 Oeste 0 -- -- 84
2019-04-15 07:00:00 -- 2 Oeste 5 Noroeste 0 -- -- --
2019-04-15 06:00:00 7 2 Noroeste 5 Noroeste 0 -- -- 82
2019-04-15 05:00:00 7.6 0 Calma 4 Oeste 0 -- -- 79
2019-04-15 04:00:00 8.1 0 Calma 5 Oeste 0 -- -- 77
2019-04-15 03:00:00 9 0 Calma 5 Nordeste 0 -- -- 75
2019-04-15 02:00:00 9.6 0 Calma 3 Noroeste 0 -- -- 72
2019-04-15 01:00:00 10.3 0 Calma 4 Oeste 0 -- -- 73
2019-04-15 00:00:00 10.9 0 Calma 4 Noroeste 0 -- -- 69
2019-04-14 23:00:00 12.2 2 Noroeste 5 Nordeste 0 -- -- 63
2019-04-14 22:00:00 13.7 2 Nordeste 4 Este 0 -- -- 54
2019-04-14 21:00:00 14.9 3 Sudeste 12 Sur 0 -- -- 50
2019-04-14 20:00:00 16.6 6 Sudeste 17 Sudoeste 0 -- -- 46
2019-04-14 19:00:00 18.8 8 Sur 18 Sudoeste 0 -- -- 40
2019-04-14 18:00:00 20 8 Sur 18 Sudeste 0 -- -- 40
2019-04-14 17:00:00 19.6 10 Sudeste 22 Este 0 -- -- 47
2019-04-14 16:00:00 20.3 8 Sur 18 Sur 0 -- -- 45
2019-04-14 15:00:00 19.3 5 Sur 14 Sudeste 0 -- -- 46
2019-04-14 14:00:00 18.5 4 Oeste 14 Norte 0 -- -- 52
2019-04-14 13:00:00 18.2 5 Oeste 12 Sudeste 0 -- -- 48
2019-04-14 12:00:00 16.7 4 Sur 10 Norte 0 -- -- 53
2019-04-14 11:00:00 14.5 3 Sudoeste 7 Sur 0 -- -- 63
2019-04-14 10:00:00 11.6 0 Calma 5 Noroeste 0 -- -- 71
2019-04-14 09:00:00 8.6 0 Calma 6 Norte 0 -- -- 80
2019-04-14 08:00:00 6.4 0 Calma 5 Oeste 0 -- -- 91
2019-04-14 07:00:00 6.4 0 Calma 4 Noroeste 0 -- -- 89
2019-04-14 06:00:00 7.3 0 Calma 4 Oeste 0 -- -- 86
2019-04-14 05:00:00 8 2 Noroeste 4 Noroeste 0 -- -- 82
2019-04-14 04:00:00 8 0 Calma 6 Noroeste 0 -- -- 85
2019-04-14 03:00:00 8.5 0 Calma 5 Noroeste 0 -- -- 90
2019-04-14 02:00:00 9.3 0 Calma 6 Noroeste 0 -- -- 89
2019-04-14 01:00:00 10.1 0 Calma 4 Oeste 0 -- -- 87
2019-04-14 00:00:00 11.4 3 Nordeste 4 Norte 0 -- -- 82
2019-04-13 23:00:00 12.4 2 Oeste 4 Noroeste 0 -- -- 81
2019-04-13 22:00:00 13.6 0 Calma 6 Sur 0 -- -- 72
2019-04-13 21:00:00 14.8 4 Sur 10 Sudeste 0 -- -- 70
2019-04-13 20:00:00 16.7 5 Sur 17 Sur 0 -- -- 63
2019-04-13 19:00:00 19 7 Sudeste 23 Sur 0 -- -- 53
2019-04-13 18:00:00 20.8 10 Sur 22 Sudeste 0 -- -- 44
2019-04-13 17:00:00 21.4 9 Sur 23 Sudeste 0 -- -- 43
2019-04-13 16:00:00 22.2 10 Sur 25 Sur 0 -- -- 39
2019-04-13 15:00:00 22.7 7 Sudeste 15 Sudeste 0 -- -- 30
2019-04-13 14:00:00 20.7 4 Noroeste 14 Sur 0 -- -- 33
2019-04-13 13:00:00 20.1 6 Sur 14 Sur 0 -- -- 37
2019-04-13 12:00:00 18.2 6 Sudoeste 14 Sudoeste 0 -- -- 46
2019-04-13 11:00:00 14.8 3 Oeste 9 Sur 0 -- -- 54
2019-04-13 10:00:00 10.6 0 Calma 4 Norte 0 -- -- 69
2019-04-13 09:00:00 7.3 2 Nordeste 4 Nordeste 0 -- -- 89
2019-04-13 08:00:00 5.4 0 Calma 5 Norte 0 -- -- 97
2019-04-13 07:00:00 5.3 0 Calma 6 Oeste 0 -- -- 94
2019-04-13 06:00:00 5.8 2 Noroeste 4 Noroeste 0 -- -- 94
2019-04-13 05:00:00 6.1 0 Calma 6 Nordeste 0 -- -- 92
2019-04-13 04:00:00 7.2 3 Sudeste 5 Sudeste 0 -- -- 94
2019-04-13 03:00:00 7.9 0 Calma 4 Nordeste 0 -- -- 92
2019-04-13 02:00:00 8.4 0 Calma 5 Sur 0 -- -- 90
2019-04-13 01:00:00 9.3 0 Calma 8 Sur 0 -- -- 86
2019-04-13 00:00:00 10.4 3 Sudoeste 7 Sur 0 -- -- 81
2019-04-12 23:00:00 11.7 3 Sur 8 Sur 0 -- -- 74
2019-04-12 22:00:00 12.7 4 Sudeste 12 Este 0 -- -- 69
2019-04-12 21:00:00 13.5 4 Este 17 Sur 0 -- -- 65
2019-04-12 20:00:00 15.1 6 Sur 23 Sur 0 -- -- 60
2019-04-12 19:00:00 17.2 11 Sudeste 28 Sur 0 -- -- 51
2019-04-12 18:00:00 19.2 11 Sur 27 Sudeste 0 -- -- 47
2019-04-12 17:00:00 20 10 Sur 26 Sur 0 -- -- 44
2019-04-12 16:00:00 20.6 13 Sur 27 Sur 0 -- -- 42
2019-04-12 15:00:00 21.4 7 Sur 19 Sudeste 0 -- -- 37
2019-04-12 14:00:00 21 6 Sudeste 15 Sudeste 0 -- -- 36
2019-04-12 13:00:00 19.8 5 Sudoeste 18 Sur 0 -- -- 41
2019-04-12 12:00:00 18.1 5 Sur 15 Sur 0 -- -- 44
2019-04-12 11:00:00 15.5 4 Sur 10 Sudeste 0 -- -- 52
2019-04-12 10:00:00 11.6 3 Sur 6 Sudoeste 0 -- -- 71
2019-04-12 09:00:00 9.3 0 Calma 4 Oeste 0 -- -- 81
2019-04-12 08:00:00 9.3 2 Este 5 Este 0 -- -- 82
2019-04-12 07:00:00 9.4 0 Calma 4 Sudoeste 0 -- -- 79
2019-04-12 06:00:00 9.5 0 Calma 6 Oeste 0 -- -- 80
2019-04-12 05:00:00 9.9 0 Calma 8 Sur 0 -- -- 82
2019-04-12 04:00:00 9.9 0 Calma 9 Sudoeste 0 -- -- 82
2019-04-12 03:00:00 10.8 2 Oeste 6 Sur 0 -- -- 79
2019-04-12 02:00:00 11.4 0 Calma 5 Este 0 -- -- 79
2019-04-12 01:00:00 11.8 3 Este 6 Sur 0 -- -- 77
2019-04-12 00:00:00 12.1 2 Este 6 Este 0 -- -- 79
2019-04-11 23:00:00 12.5 0 Calma 6 Oeste 0 -- -- 76
2019-04-11 22:00:00 12.9 3 Sudoeste 6 Sur 0 -- -- 75
2019-04-11 21:00:00 13.3 0 Calma 5 Sur 0 -- -- 69
2019-04-11 20:00:00 14.3 3 Sudeste 9 Sudeste 0 -- -- 62
2019-04-11 19:00:00 14.9 4 Sudeste 9 Sudeste 0 -- -- 55
2019-04-11 18:00:00 15.4 4 Sur 10 Sudeste 0 -- -- 56
2019-04-11 17:00:00 15.8 6 Sur 11 Sur 0 -- -- 54
2019-04-11 16:00:00 16.1 5 Norte 10 Norte 0 -- -- 48
2019-04-11 15:00:00 16.2 2 Este 9 Nordeste 0 -- -- 49
2019-04-11 14:00:00 16.9 2 Este 12 Sudoeste 0 -- -- 41
2019-04-11 13:00:00 17.7 5 Sur 17 Sur 0 -- -- 39
2019-04-11 12:00:00 16.2 3 Sur 10 Sur 0 -- -- 48
2019-04-11 11:00:00 15.3 3 Este 8 Este 0 -- -- 53
2019-04-11 10:00:00 11.4 2 Sudeste 6 Sudeste 0 -- -- 70
2019-04-11 09:00:00 9.4 2 Oeste 9 Norte 0 -- -- 78
2019-04-11 08:00:00 8.5 0 Calma 6 Nordeste 0 -- -- 86
2019-04-11 07:00:00 8.6 3 Este 5 Nordeste 0 -- -- 87
2019-04-11 06:00:00 8.9 0 Calma 6 Nordeste 0 -- -- 86
2019-04-11 05:00:00 9.5 0 Calma 5 Nordeste 0 -- -- 83
2019-04-11 04:00:00 10 3 Sudeste 8 Nordeste 0 -- -- 80
2019-04-11 03:00:00 10.7 0 Calma 7 Nordeste 0 -- -- 79
2019-04-11 02:00:00 11.2 3 Sur 8 Nordeste 0 -- -- 76
2019-04-11 01:00:00 11.8 3 Este 8 Sudoeste 0 -- -- 73
2019-04-11 00:00:00 12.9 3 Sudeste 8 Sur 0 -- -- 69
2019-04-10 23:00:00 13.1 2 Nordeste 8 Sur 0 -- -- 66
2019-04-10 22:00:00 13.2 2 Norte 9 Sur 0 -- -- 65
2019-04-10 21:00:00 14 2 Sur 13 Sur 0 -- -- 59
2019-04-10 20:00:00 15.1 5 Sur 14 Sur 0 -- -- 53
2019-04-10 19:00:00 16.7 9 Sudeste 19 Sudeste 0 -- -- 50
2019-04-10 18:00:00 17.6 9 Sur 23 Sudoeste 0 -- -- 48
2019-04-10 17:00:00 18 9 Sur 23 Sur 0 -- -- 45
2019-04-10 16:00:00 17.3 7 Sudoeste 18 Sudoeste 0 -- -- 49
2019-04-10 15:00:00 17.9 3 Sudoeste 11 Noroeste 0 -- -- 46
2019-04-10 14:00:00 18.1 4 Sur 13 Sudeste 0.4 -- -- 44
2019-04-10 13:00:00 17.6 6 Sudoeste 11 Sur 0 -- -- 41
2019-04-10 12:00:00 16.5 3 Sudeste 6 Sur 0 -- -- 47
2019-04-10 11:00:00 14.1 3 Sudeste 7 Sur 0 -- -- 60
2019-04-10 10:00:00 10.2 2 Sur 8 Sudeste 0 -- -- 75
2019-04-10 09:00:00 7.5 2 Nordeste 5 Sudeste 0 -- -- 90
2019-04-10 08:00:00 6 0 Calma 5 Nordeste 0 -- -- 95
2019-04-10 07:00:00 5.8 2 Este 4 Este 0 -- -- 95
2019-04-10 06:00:00 6.2 0 Calma 5 Este 0 -- -- 95
2019-04-10 05:00:00 6.6 0 Calma 5 Nordeste 0 -- -- 95
2019-04-10 04:00:00 7.3 0 Calma 5 Este 0 -- -- 95
2019-04-10 03:00:00 7.8 0 Calma 4 Sudoeste 0 -- -- 95
2019-04-10 02:00:00 8.5 0 Calma 6 Nordeste 0 -- -- 90
2019-04-10 01:00:00 8.8 2 Sudeste 5 Nordeste 0 -- -- 88
2019-04-10 00:00:00 9.5 2 Este 9 Sudeste 0 -- -- 84
2019-04-09 23:00:00 10 2 Este 11 Sur 0 -- -- 84
2019-04-09 22:00:00 10.4 0 Calma 6 Sudoeste 0 -- -- 81
2019-04-09 21:00:00 10.7 3 Sur 13 Sudoeste 0 -- -- 79
2019-04-09 20:00:00 11.1 8 Sur 13 Sur 0 -- -- 76
2019-04-09 19:00:00 11.4 5 Sur 14 Sudeste 0 -- -- 74
2019-04-09 18:00:00 11.5 3 Oeste 19 Sur 0.4 -- -- 78
2019-04-09 17:00:00 12.9 5 Sudoeste 14 Sur 0 -- -- 74
2019-04-09 16:00:00 14.6 6 Sudoeste 26 Sudoeste 0 -- -- 68
2019-04-09 15:00:00 17.2 6 Sur 17 Sur 0 -- -- 53
2019-04-09 14:00:00 16.1 5 Sudeste 10 Sudeste 0.2 -- -- 65
2019-04-09 13:00:00 14.8 5 Norte 10 Nordeste 0 -- -- 66
2019-04-09 12:00:00 13.4 0 Calma 6 Sudoeste 0 -- -- 78
2019-04-09 11:00:00 13.1 2 Oeste 7 Norte 0 -- -- 77
2019-04-09 10:00:00 12 3 Noroeste 8 Oeste 0 -- -- 89
2019-04-09 09:00:00 10.2 4 Sudeste 9 Este 0 -- -- 96
2019-04-09 08:00:00 9.7 0 Calma 4 Sudeste 0 -- -- 98
2019-04-09 07:00:00 9.4 0 Calma 9 Noroeste 0 -- -- 98
2019-04-09 06:00:00 9.3 0 Calma 5 Oeste 0 -- -- 99
2019-04-09 05:00:00 9.9 0 Calma 4 Oeste 0 -- -- 98
2019-04-09 04:00:00 10.2 0 Calma 4 Oeste 0 -- -- 97
2019-04-09 03:00:00 10.9 0 Calma 8 Oeste 0 -- -- 94
2019-04-09 02:00:00 11.5 0 Calma 9 Noroeste 0 -- -- 94
2019-04-09 01:00:00 12.1 5 Noroeste 15 Noroeste 0 -- -- 90
2019-04-09 00:00:00 12.3 6 Norte 15 Noroeste 1.6 -- -- 88
2019-04-08 23:00:00 13.1 6 Norte 11 Norte 0 -- -- 89
2019-04-08 22:00:00 13.3 0 Calma 8 Sudeste 0.4 -- -- 85
2019-04-08 21:00:00 14.4 5 Sur 13 Sudoeste 0.8 -- -- 76
2019-04-08 20:00:00 16.5 6 Sur 14 Sudeste 0 -- -- 51
2019-04-08 19:00:00 17.6 3 Este 13 Este 0 -- -- 48
2019-04-08 18:00:00 19.1 5 Este 17 Este 0 -- -- 45
2019-04-08 17:00:00 20 7 Nordeste 17 Este 0 -- -- 43
2019-04-08 16:00:00 19.1 5 Sudeste 14 Este 0 -- -- 45
2019-04-08 15:00:00 19.3 6 Norte 16 Este 0 -- -- 43
2019-04-08 14:00:00 -- 3 Este 15 Sudeste 0 -- -- --
2019-04-08 13:00:00 19.5 6 Sudeste 13 Sudeste 0 -- -- 37
2019-04-08 12:00:00 16.8 3 Este 9 Sur 0 -- -- 48
2019-04-08 11:00:00 13.6 3 Este 11 Sudeste 0 -- -- 61
2019-04-08 10:00:00 10.1 2 Sur 7 Sudeste 0 -- -- 74
2019-04-08 09:00:00 6.5 3 Nordeste 7 Nordeste 0 -- -- 90
2019-04-08 08:00:00 5.1 3 Sudeste 8 Sudeste 0 -- -- 94
2019-04-08 07:00:00 5.2 0 Calma 5 Sudoeste 0 -- -- 95
2019-04-08 06:00:00 5.3 0 Calma 6 Sur 0 -- -- 95
2019-04-08 05:00:00 5.5 4 Sudeste 6 Sudeste 0 -- -- 95
2019-04-08 04:00:00 5.9 0 Calma 5 Sur 0 -- -- 95
2019-04-08 03:00:00 6.5 0 Calma 9 Sur 0 -- -- 92
2019-04-08 02:00:00 7.3 0 Calma 8 Sudeste 0 -- -- 90
2019-04-08 01:00:00 8 3 Sudoeste 11 Sudoeste 0 -- -- 90
2019-04-08 00:00:00 8.5 0 Calma 5 Sudeste 0 -- -- 88
2019-04-07 23:00:00 10 3 Sur 7 Sudeste 0 -- -- 82
2019-04-07 22:00:00 10.6 3 Sudeste 9 Sudeste 0 -- -- 79
2019-04-07 21:00:00 11.5 3 Sudeste 9 Sudeste 0 -- -- 73
2019-04-07 20:00:00 12.2 4 Este 14 Sudeste 0 -- -- 68
2019-04-07 19:00:00 12.3 3 Este 15 Sur 0 -- -- 65
2019-04-07 18:00:00 12.7 6 Sur 23 Sur 0 -- -- 59
2019-04-07 17:00:00 13.4 11 Sur 22 Sur 0 -- -- 56
2019-04-07 16:00:00 14.7 9 Nordeste 30 Nordeste 0 -- -- 54
2019-04-07 15:00:00 16.6 11 Norte 32 Nordeste 0 -- -- 50
2019-04-07 14:00:00 16.8 12 Norte 36 Norte 0 -- -- 43
2019-04-07 13:00:00 16 14 Nordeste 34 Nordeste 0 -- -- 44
2019-04-07 12:00:00 15.3 12 Norte 28 Nordeste 0 -- -- 47
2019-04-07 11:00:00 13.3 9 Nordeste 24 Nordeste 0 -- -- 58
2019-04-07 10:00:00 10.4 7 Norte 16 Norte 0 -- -- 68
2019-04-07 09:00:00 5.6 2 Noroeste 6 Norte 0 -- -- 85
2019-04-07 08:00:00 4.2 3 Noroeste 8 Norte 0 -- -- 92
2019-04-07 07:00:00 4.6 2 Oeste 4 Noroeste 0 -- -- 91
2019-04-07 06:00:00 5.2 0 Calma 5 Este 0 -- -- 89
2019-04-07 05:00:00 5.6 0 Calma 5 Nordeste 0 -- -- 88
2019-04-07 04:00:00 6.6 2 Nordeste 5 Este 0 -- -- 85
2019-04-07 03:00:00 7 0 Calma 8 Nordeste 0 -- -- 83
2019-04-07 02:00:00 8 3 Sudoeste 7 Oeste 0 -- -- 78
2019-04-07 01:00:00 -- -- -- -- -- -- -- -- --
2019-04-07 00:00:00 10 2 Sudeste 8 Sur 0 -- -- 74
2019-04-06 23:00:00 10.7 3 Sudeste 6 Este 0 -- -- 73
2019-04-06 22:00:00 11.8 2 Sudeste 19 Sur 0 -- -- 65
2019-04-06 21:00:00 12.4 9 Sur 24 Sur 0 -- -- 58
2019-04-06 20:00:00 13.8 11 Sur 27 Sur 0 -- -- 52
2019-04-06 19:00:00 17.1 8 Sudoeste 25 Sudoeste 0 -- -- 33
2019-04-06 18:00:00 17.9 8 Oeste 27 Sudoeste 0 -- -- 30
2019-04-06 17:00:00 17.9 8 Oeste 26 Sudoeste 0 -- -- 34
2019-04-06 16:00:00 17.8 9 Oeste 23 Oeste 0 -- -- 37
2019-04-06 15:00:00 16.6 9 Oeste 25 Oeste 0 -- -- 40
2019-04-06 14:00:00 15.9 10 Oeste 30 Sudoeste 0 -- -- 44
2019-04-06 13:00:00 14.6 11 Oeste 33 Oeste 0 -- -- 48
2019-04-06 12:00:00 13.9 6 Sudoeste 20 Sudoeste 0 -- -- 52
2019-04-06 11:00:00 12.9 9 Oeste 17 Noroeste 0.2 -- -- 57
2019-04-06 10:00:00 10.5 4 Sudoeste 8 Sur 0 -- -- 75
2019-04-06 09:00:00 9 4 Sudeste 7 Sur 0 -- -- 100
2019-04-06 08:00:00 8.5 0 Calma 6 Sudeste 0 -- -- 100
2019-04-06 07:00:00 9.2 2 Este 5 Este 0 -- -- 100
2019-04-06 06:00:00 9.4 4 Sur 14 Sur 0 -- -- 97
2019-04-06 05:00:00 9.7 6 Sur 20 Sudeste 0 -- -- 95
2019-04-06 04:00:00 10.4 7 Sur 21 Sudeste 0.2 -- -- 95
2019-04-06 03:00:00 11 7 Sur 23 Sudeste 4.8 -- -- 97
2019-04-06 02:00:00 11.5 0 Calma 6 Sur 1 -- -- 100
2019-04-06 01:00:00 11.5 0 Calma 4 Nordeste 0 -- -- 97
2019-04-06 00:00:00 11.9 2 Oeste 13 Sur 0.8 -- -- 94
2019-04-05 23:00:00 12.8 3 Sudeste 13 Sudeste 0.4 -- -- 88
2019-04-05 22:00:00 12.7 2 Sur 9 Sudeste 0 -- -- 80
2019-04-05 21:00:00 12.7 5 Sudeste 23 Sudeste 0 -- -- 68
2019-04-05 20:00:00 13.2 9 Sur 28 Sur 0 -- -- 70
2019-04-05 19:00:00 14.1 13 Sur 30 Sur 0 -- -- 74
2019-04-05 18:00:00 14.7 13 Sur 32 Sur 0 -- -- 71
2019-04-05 17:00:00 13.5 8 Sur 22 Sudeste 0.6 -- -- 88
2019-04-05 16:00:00 12.8 10 Sur 32 Sur 0.4 -- -- 81
2019-04-05 15:00:00 15.7 13 Sur 29 Sur 0 -- -- 64
2019-04-05 14:00:00 15.6 15 Sur 32 Sur 0 -- -- 61
2019-04-05 13:00:00 15.4 14 Sur 33 Sur 0 -- -- 59
2019-04-05 12:00:00 16.8 10 Sur 28 Sur 0 -- -- 54
2019-04-05 11:00:00 14.1 6 Sudoeste 17 Sudoeste 0 -- -- 60
2019-04-05 10:00:00 10.3 8 Sur 15 Sur 0 -- -- 68
2019-04-05 09:00:00 5.9 5 Sudeste 13 Sudeste 0 -- -- 79
2019-04-05 08:00:00 3.7 2 Nordeste 8 Este 0 -- -- 90
2019-04-05 07:00:00 3.3 2 Este 6 Este 0 -- -- 91
2019-04-05 06:00:00 3.2 0 Calma 5 Sur 0 -- -- 92
2019-04-05 05:00:00 3.4 2 Sur 7 Sur 0 -- -- 92
2019-04-05 04:00:00 3.9 0 Calma 5 Oeste 0 -- -- 89
2019-04-05 03:00:00 4.1 0 Calma 4 Noroeste 0 -- -- 90
2019-04-05 02:00:00 4.9 0 Calma 5 Este 0 -- -- 86
2019-04-05 01:00:00 5 0 Calma 6 Oeste 0 -- -- 84
2019-04-05 00:00:00 6.2 0 Calma 7 Sudoeste 0 -- -- 80
2019-04-04 23:00:00 7.4 3 Oeste 7 Sudeste 0 -- -- 73
2019-04-04 22:00:00 8.4 3 Sur 10 Sudeste 0 -- -- 68
2019-04-04 21:00:00 9.6 5 Sudeste 12 Sur 0 -- -- 62
2019-04-04 20:00:00 11 6 Sur 25 Sur 0 -- -- 58
2019-04-04 19:00:00 13.1 10 Sur 25 Sur 0 -- -- 52
2019-04-04 18:00:00 14.2 12 Sur 24 Sur 0 -- -- 51
2019-04-04 17:00:00 14.6 9 Sur 23 Sur 0 -- -- 49
2019-04-04 16:00:00 14 6 Sudeste 27 Sudeste 0 -- -- 49
2019-04-04 15:00:00 15.4 6 Sudeste 18 Este 0 -- -- 43
2019-04-04 14:00:00 15.2 7 Sur 16 Sudeste 0 -- -- 38
2019-04-04 13:00:00 13.5 7 Sur 14 Sudoeste 0 -- -- 41
2019-04-04 12:00:00 11.6 5 Oeste 13 Norte 0 -- -- 53
2019-04-04 11:00:00 9.2 3 Oeste 6 Noroeste 0 -- -- 69
2019-04-04 10:00:00 6.5 2 Oeste 7 Sudeste 0 -- -- 83
2019-04-04 09:00:00 4.4 3 Sudeste 9 Este 0 -- -- 100
2019-04-04 08:00:00 4.4 2 Nordeste 7 Sur 0 -- -- 100
2019-04-04 07:00:00 4.4 6 Sudoeste 11 Sur 0 -- -- 100
2019-04-04 06:00:00 4.6 0 Calma 5 Sudeste 0 -- -- 100
2019-04-04 05:00:00 5.1 3 Sudeste 8 Sudeste 0 -- -- 100
2019-04-04 04:00:00 5.4 0 Calma 7 Sudeste 0 -- -- 98
2019-04-04 03:00:00 5.9 0 Calma 6 Sudeste 0 -- -- 96
2019-04-04 02:00:00 6.3 0 Calma 9 Oeste 0 -- -- 95
2019-04-04 01:00:00 6.2 3 Oeste 6 Oeste 0 -- -- 94
2019-04-04 00:00:00 6.2 0 Calma 15 Nordeste 0.4 -- -- 91
2019-04-03 23:00:00 6.3 7 Nordeste 27 Nordeste 1 -- -- 92
2019-04-03 22:00:00 6.6 11 Nordeste 22 Este 4.6 -- -- 92
2019-04-03 21:00:00 7.2 9 Norte 28 Nordeste 0.8 -- -- 90
2019-04-03 20:00:00 7.7 10 Norte 26 Norte 1.4 -- -- 89
2019-04-03 19:00:00 8.9 8 Norte 21 Norte 1.4 -- -- 86
2019-04-03 18:00:00 10 6 Nordeste 21 Norte 0.6 -- -- 90
2019-04-03 17:00:00 10.8 9 Norte 25 Norte 0 -- -- 88
2019-04-03 16:00:00 12.9 10 Norte 20 Norte 0.2 -- -- 86
2019-04-03 15:00:00 12.7 8 Sudeste 34 Sur 5.6 -- -- 83
2019-04-03 14:00:00 16.9 8 Sur 28 Sur 0 -- -- 71
2019-04-03 13:00:00 16.9 10 Sudeste 29 Sur 0 -- -- 71
2019-04-03 12:00:00 16.3 11 Sur 30 Sur 0 -- -- 73
2019-04-03 11:00:00 14.1 4 Sur 21 Sudeste 0 -- -- 93
2019-04-03 10:00:00 11.7 5 Sudoeste 12 Sur 0 -- -- 100
2019-04-03 09:00:00 9.9 3 Sudeste 9 Este 0.2 -- -- 100
2019-04-03 08:00:00 9.4 0 Calma 8 Sur 0 -- -- 100
2019-04-03 07:00:00 9.4 4 Sudoeste 7 Sudoeste 0 -- -- 100
2019-04-03 06:00:00 9.2 2 Este 6 Sudeste 0 -- -- 100
2019-04-03 05:00:00 9.3 4 Sudeste 10 Sudeste 0 -- -- 100
2019-04-03 04:00:00 9.9 2 Sudeste 7 Sudeste 0 -- -- 99
2019-04-03 03:00:00 10.4 3 Sudeste 6 Sudeste 0 -- -- 99
2019-04-03 02:00:00 10.6 3 Sudeste 7 Sudeste 0 -- -- 99
2019-04-03 01:00:00 10.8 4 Sudeste 9 Sudeste 0 -- -- 99
2019-04-03 00:00:00 11 0 Calma 8 Oeste 1 -- -- 97
2019-04-02 23:00:00 11 2 Oeste 8 Sur 0 -- -- 97
2019-04-02 22:00:00 11.3 2 Oeste 8 Sur 0 -- -- 96
2019-04-02 21:00:00 11.8 3 Oeste 7 Sudeste 2 -- -- 96
2019-04-02 20:00:00 12 0 Calma 11 Noroeste 6.8 -- -- 92
2019-04-02 19:00:00 12.8 7 Norte 24 Noroeste 1 -- -- 85
2019-04-02 18:00:00 16.3 8 Norte 19 Nordeste 0 -- -- 60
2019-04-02 17:00:00 18 8 Nordeste 23 Nordeste 0 -- -- 55
2019-04-02 16:00:00 19.2 4 Este 15 Sudeste 0 -- -- 49
2019-04-02 15:00:00 19.1 5 Este 19 Sudeste 0 -- -- 53
2019-04-02 14:00:00 19.8 4 Sudeste 15 Norte 0 -- -- 43
2019-04-02 13:00:00 18.7 10 Norte 18 Norte 0 -- -- 46
2019-04-02 12:00:00 17.2 5 Noroeste 13 Norte 0 -- -- 52
2019-04-02 11:00:00 15.3 3 Noroeste 8 Norte 0 -- -- 59
2019-04-02 10:00:00 10.6 0 Calma 4 Norte 0 -- -- 72
2019-04-02 09:00:00 8.1 2 Oeste 7 Oeste 0 -- -- 83
2019-04-02 08:00:00 6.9 0 Calma 4 Noroeste 0 -- -- 87
2019-04-02 07:00:00 7.1 2 Noroeste 4 Noroeste 0 -- -- 86
2019-04-02 06:00:00 7.3 0 Calma 4 Sudoeste 0 -- -- 85
2019-04-02 05:00:00 7.4 0 Calma 3 Oeste 0 -- -- 85
2019-04-02 04:00:00 7.9 0 Calma 5 Sur 0 -- -- 87
2019-04-02 03:00:00 8.6 0 Calma 6 Sudoeste 0 -- -- 84
2019-04-02 02:00:00 9.4 0 Calma 5 Sur 0 -- -- 83
2019-04-02 01:00:00 10.5 4 Sudoeste 8 Sur 0 -- -- 80
2019-04-02 00:00:00 11.2 3 Sudeste 7 Sudeste 0 -- -- 76
2019-04-01 23:00:00 11.9 3 Sur 6 Sur 0 -- -- 72
2019-04-01 22:00:00 12.5 4 Sudeste 10 Sudeste 0 -- -- 70
2019-04-01 21:00:00 13.7 4 Sudeste 13 Sur 0 -- -- 61
2019-04-01 20:00:00 15.3 5 Sur 18 Sudeste 0 -- -- 55
2019-04-01 19:00:00 17.4 10 Sudeste 21 Sudeste 0 -- -- 46
2019-04-01 18:00:00 19.3 9 Sur 26 Sudeste 0 -- -- 41
2019-04-01 17:00:00 20.7 10 Sudeste 23 Sur 0 -- -- 36
2019-04-01 16:00:00 21.9 10 Sudeste 23 Sudeste 0 -- -- 34
2019-04-01 15:00:00 21.8 8 Sudeste 19 Sudeste 0 -- -- 33
2019-04-01 14:00:00 20.3 3 Sudoeste 8 Sur 0 -- -- 35
2019-04-01 13:00:00 19.2 3 Sudeste 10 Sudoeste 0 -- -- 39
2019-04-01 12:00:00 17.6 2 Sur 9 Sudoeste 0 -- -- 43
2019-04-01 11:00:00 14 2 Este 6 Sudoeste 0 -- -- 58
2019-04-01 10:00:00 11.2 2 Oeste 4 Oeste 0 -- -- 69
2019-04-01 09:00:00 9.1 2 Noroeste 4 Noroeste 0 -- -- 76
2019-04-01 08:00:00 7.4 0 Calma 4 Oeste 0 -- -- 82
2019-04-01 07:00:00 7.4 0 Calma 4 Noroeste 0 -- -- 79
2019-04-01 06:00:00 7.8 0 Calma 3 Noroeste 0 -- -- 78
2019-04-01 05:00:00 8 0 Calma 5 Noroeste 0 -- -- 79
2019-04-01 04:00:00 8.3 2 Noroeste 4 Noroeste 0 -- -- 81
2019-04-01 03:00:00 8.4 0 Calma 4 Oeste 0 -- -- 82
2019-04-01 02:00:00 9.7 0 Calma 5 Noroeste 0 -- -- 80
2019-04-01 01:00:00 10.6 0 Calma 4 Oeste 0 -- -- 83
2019-04-01 00:00:00 11.4 2 Noroeste 9 Norte 0 -- -- 84
2019-03-31 23:00:00 12 3 Noroeste 5 Noroeste 0 -- -- 80
2019-03-31 22:00:00 12.8 0 Calma 4 Noroeste 0 -- -- 75
2019-03-31 21:00:00 13.6 0 Calma 10 Sudeste 0 -- -- 69
2019-03-31 20:00:00 14.9 4 Sudeste 12 Este 0 -- -- 64
2019-03-31 19:00:00 16.3 4 Este 12 Este 0 -- -- 56
2019-03-31 18:00:00 17.8 4 Nordeste 17 Nordeste 0 -- -- 51
2019-03-31 17:00:00 17.1 5 Nordeste 14 Nordeste 0 -- -- 52
2019-03-31 16:00:00 17.5 5 Norte 13 Nordeste 0 -- -- 53
2019-03-31 15:00:00 17.6 5 Sudeste 12 Norte 0 -- -- 51
2019-03-31 14:00:00 16.9 3 Norte 9 Nordeste 0 -- -- 55
2019-03-31 13:00:00 15.7 4 Norte 14 Norte 0 -- -- 57
2019-03-31 12:00:00 15 4 Norte 10 Norte 0 -- -- 62
2019-03-31 11:00:00 12.2 4 Oeste 10 Noroeste 0 -- -- 71
2019-03-31 10:00:00 9.5 3 Oeste 5 Oeste 0 -- -- 79
2019-03-31 09:00:00 7.8 3 Oeste 5 Oeste 0 -- -- 84
2019-03-31 08:00:00 6.5 0 Calma 4 Noroeste 0 -- -- 89
2019-03-31 07:00:00 5.7 0 Calma 6 Noroeste 0 -- -- 89
2019-03-31 06:00:00 4.9 0 Calma 3 Oeste 0 -- -- 92
2019-03-31 05:00:00 5.3 0 Calma 3 Oeste 0 -- -- 90
2019-03-31 03:00:00 6.8 0 Calma 5 Oeste 0 -- -- 85
2019-03-31 01:00:00 7.5 0 Calma 3 Nordeste 0 -- -- 84
2019-03-31 00:00:00 8.3 0 Calma 5 Este 0 -- -- 80
2019-03-30 23:00:00 9.2 2 Este 4 Nordeste 0 -- -- 79
2019-03-30 22:00:00 10.1 2 Este 6 Este 0 -- -- 76
2019-03-30 21:00:00 11.1 3 Sur 6 Sudeste 0 -- -- 72
2019-03-30 20:00:00 12.2 3 Sudeste 15 Sudeste 0 -- -- 67
2019-03-30 19:00:00 13.5 6 Sudeste 19 Sudeste 0 -- -- 61
2019-03-30 18:00:00 15.6 10 Sur 22 Sudeste 0 -- -- 51
2019-03-30 17:00:00 17.4 10 Sudeste 25 Sudeste 0 -- -- 44
2019-03-30 16:00:00 18.3 10 Sur 20 Sudeste 0 -- -- 43
2019-03-30 15:00:00 19.1 8 Sudeste 24 Sudeste 0 -- -- 37
2019-03-30 14:00:00 18.5 9 Sudeste 22 Sudeste 0 -- -- 40
2019-03-30 13:00:00 18.1 9 Sur 22 Sudeste 0 -- -- 45
2019-03-30 12:00:00 16.9 7 Sur 22 Sudeste 0 -- -- 47
2019-03-30 11:00:00 15.5 9 Sur 17 Sudoeste 0 -- -- 53
2019-03-30 10:00:00 11.4 2 Sudeste 5 Oeste 0 -- -- 59
2019-03-30 09:00:00 6.8 0 Calma 4 Nordeste 0 -- -- 66
2019-03-30 08:00:00 3.8 2 Nordeste 4 Nordeste 0 -- -- 76
2019-03-30 07:00:00 2.9 0 Calma 5 Nordeste 0 -- -- 79
2019-03-30 06:00:00 3.2 0 Calma 5 Nordeste 0 -- -- 77
2019-03-30 05:00:00 3.6 0 Calma 5 Este 0 -- -- 75
2019-03-30 04:00:00 4.1 0 Calma 4 Nordeste 0 -- -- 74
2019-03-30 03:00:00 4.3 2 Oeste 5 Oeste 0 -- -- 70
2019-03-30 02:00:00 5.1 3 Noroeste 7 Oeste 0 -- -- 66
2019-03-30 01:00:00 5.8 0 Calma 4 Nordeste 0 -- -- 65
2019-03-30 00:00:00 6.7 3 Oeste 5 Noroeste 0 -- -- 61
2019-03-29 23:00:00 7.7 0 Calma 5 Noroeste 0 -- -- 57
2019-03-29 22:00:00 9.1 3 Noroeste 6 Oeste 0 -- -- 52
2019-03-29 21:00:00 11 3 Oeste 4 Noroeste 0 -- -- 48
2019-03-29 20:00:00 13 2 Sudeste 10 Sudeste 0 -- -- 42
2019-03-29 19:00:00 14.8 6 Sur 19 Sudeste 0 -- -- 38
2019-03-29 18:00:00 16.6 8 Sudeste 21 Sur 0 -- -- 31
2019-03-29 17:00:00 17.9 9 Sur 23 Sur 0 -- -- 31
2019-03-29 16:00:00 18.7 10 Sudeste 21 Sur 0 -- -- 33
2019-03-29 15:00:00 19 13 Sur 28 Sur 0 -- -- 30
2019-03-29 14:00:00 19.3 10 Sudeste 23 Sudeste 0 -- -- 29
2019-03-29 13:00:00 19.4 9 Sur 23 Sudeste 0 -- -- 29
2019-03-29 12:00:00 18.9 11 Sur 23 Sudeste 0 -- -- 29
2019-03-29 11:00:00 17.3 7 Sur 14 Sudoeste 0 -- -- 39
2019-03-29 10:00:00 12.9 3 Noroeste 5 Noroeste 0 -- -- 61
2019-03-29 09:00:00 8.7 2 Sudeste 4 Nordeste 0 -- -- 70
2019-03-29 08:00:00 5.4 0 Calma 5 Norte 0 -- -- 82
2019-03-29 07:00:00 4.3 2 Oeste 6 Nordeste 0 -- -- 83
2019-03-29 06:00:00 4.4 3 Oeste 4 Oeste 0 -- -- 82
2019-03-29 05:00:00 5 3 Oeste 5 Oeste 0 -- -- 81
2019-03-29 04:00:00 5.4 0 Calma 5 Oeste 0 -- -- 78
2019-03-29 03:00:00 6 0 Calma 7 Nordeste 0 -- -- 75
2019-03-29 02:00:00 6.8 3 Oeste 5 Oeste 0 -- -- 74
2019-03-29 01:00:00 7.5 0 Calma 5 Sudoeste 0 -- -- 71
2019-03-29 00:00:00 8.3 2 Oeste 5 Sudoeste 0 -- -- 68
2019-03-28 23:00:00 9.6 2 Sudeste 5 Sudeste 0 -- -- 61
2019-03-28 22:00:00 10.8 0 Calma 8 Sudeste 0 -- -- 57
2019-03-28 21:00:00 12.3 4 Sudeste 9 Sudeste 0 -- -- 51
2019-03-28 20:00:00 13.5 3 Sur 11 Sur 0 -- -- 44
2019-03-28 19:00:00 15 6 Sur 19 Sur 0 -- -- 39
2019-03-28 18:00:00 16.9 10 Sudeste 19 Sudeste 0 -- -- 41
2019-03-28 17:00:00 18.8 9 Sur 18 Sur 0 -- -- 39
2019-03-28 16:00:00 19.8 5 Este 25 Sudeste 0 -- -- 37
2019-03-28 15:00:00 19.3 13 Sur 26 Sur 0 -- -- 39
2019-03-28 14:00:00 19.7 4 Norte 15 Nordeste 0 -- -- 34
2019-03-28 13:00:00 19.4 4 Sudoeste 17 Norte 0 -- -- 28
2019-03-28 12:00:00 18.5 4 Sudeste 9 Norte 0 -- -- 32
2019-03-28 11:00:00 17.1 3 Sur 10 Sudoeste 0 -- -- 34
2019-03-28 10:00:00 12.4 2 Nordeste 6 Nordeste 0 -- -- 46
2019-03-28 09:00:00 8.3 3 Nordeste 6 Nordeste 0 -- -- 57
2019-03-28 08:00:00 5.6 2 Este 5 Oeste 0 -- -- 66
2019-03-28 07:00:00 4.6 3 Oeste 6 Oeste 0 -- -- 67
2019-03-28 06:00:00 4.9 2 Noroeste 6 Noroeste 0 -- -- 66
2019-03-28 05:00:00 5.1 2 Oeste 4 Nordeste 0 -- -- 67
2019-03-28 04:00:00 5.1 0 Calma 6 Nordeste 0 -- -- 69
2019-03-28 03:00:00 5.6 3 Nordeste 5 Nordeste 0 -- -- 70
2019-03-28 02:00:00 6 2 Noroeste 6 Oeste 0 -- -- 65
2019-03-28 01:00:00 6.6 3 Oeste 6 Oeste 0 -- -- 64
2019-03-28 00:00:00 7.4 3 Noroeste 7 Noroeste 0 -- -- 63
2019-03-27 23:00:00 8.5 3 Noroeste 8 Noroeste 0 -- -- 60
2019-03-27 22:00:00 10 0 Calma 6 Sur 0 -- -- 58
2019-03-27 21:00:00 11.8 3 Sur 8 Sudeste 0 -- -- 54
2019-03-27 20:00:00 13 2 Sudeste 13 Sudoeste 0 -- -- 48
2019-03-27 19:00:00 14.8 6 Sur 18 Sur 0 -- -- 42
2019-03-27 18:00:00 17.2 9 Sur 19 Sur 0 -- -- 38
2019-03-27 17:00:00 18.8 12 Sur 20 Sudeste 0 -- -- 34
2019-03-27 16:00:00 19.6 10 Sudeste 28 Sudeste 0 -- -- 29
2019-03-27 15:00:00 21.4 8 Sudeste 21 Este 0 -- -- 21
2019-03-27 14:00:00 21.1 6 Sudoeste 17 Sudoeste 0 -- -- 16
2019-03-27 13:00:00 19.1 5 Oeste 17 Noroeste 0 -- -- 19
2019-03-27 12:00:00 17.9 6 Norte 14 Norte 0 -- -- 19
2019-03-27 11:00:00 16.7 5 Este 13 Este 0 -- -- 22
2019-03-27 10:00:00 12.7 2 Noroeste 4 Noroeste 0 -- -- 34
2019-03-27 09:00:00 7.8 0 Calma 7 Sudoeste 0 -- -- 44
2019-03-27 08:00:00 5.3 2 Oeste 5 Noroeste 0 -- -- 47
2019-03-27 07:00:00 4.1 2 Noroeste 6 Oeste 0 -- -- 50
2019-03-27 06:00:00 5.2 3 Noroeste 7 Noroeste 0 -- -- 46
2019-03-27 05:00:00 6.6 3 Noroeste 8 Oeste 0 -- -- 42
2019-03-27 04:00:00 10.4 2 Oeste 22 Nordeste 0 -- -- 32
2019-03-27 03:00:00 12.1 6 Norte 28 Norte 0 -- -- 27
2019-03-27 02:00:00 12.9 9 Norte 31 Nordeste 0 -- -- 25
2019-03-27 01:00:00 13.5 8 Norte 28 Nordeste 0 -- -- 25
2019-03-27 00:00:00 14 10 Norte 26 Norte 0 -- -- 23